Time;durP1;ratioP1;P1;durP2;ratioP2;P2;SDS_P1;SDS_P2;PMS_P1;PMS_P2;Temp;Humidity;BMP_temperature;BMP_pressure;BME280_temperature;BME280_humidity;BME280_pressure;Samples;Min_cycle;Max_cycle;Signal;HPM_P1;HPM_P2
2021/04/08 00:01:33;;;;;;;4.30;2.47;;;0.00;99.90;;;;;;5111262;28;20450;-73
2021/04/08 00:04:00;;;;;;;6.03;2.23;;;0.10;99.90;;;;;;5111284;28;20432;-72
2021/04/08 00:06:27;;;;;;;2.80;1.63;;;0.10;99.90;;;;;;5111361;28;20424;-73
2021/04/08 00:08:53;;;;;;;1.50;1.40;;;0.10;99.90;;;;;;5111261;28;20424;-72
2021/04/08 00:11:21;;;;;;;3.50;2.40;;;0.10;99.90;;;;;;5111284;28;20448;-72
2021/04/08 00:13:48;;;;;;;1.77;1.63;;;0.00;99.90;;;;;;5110899;28;20463;-74
2021/04/08 00:16:14;;;;;;;2.23;1.63;;;0.10;99.90;;;;;;5110387;28;20430;-72
2021/04/08 00:18:42;;;;;;;4.07;1.67;;;0.10;99.90;;;;;;5111023;28;20424;-72
2021/04/08 00:21:09;;;;;;;5.17;1.77;;;0.10;99.90;;;;;;5111393;28;20530;-72
2021/04/08 00:23:36;;;;;;;3.03;1.53;;;0.10;99.90;;;;;;5111026;28;20435;-72
2021/04/08 00:26:03;;;;;;;3.57;2.57;;;0.10;99.90;;;;;;5111278;28;20424;-72
2021/04/08 00:28:31;;;;;;;1.57;1.37;;;0.10;99.90;;;;;;5110966;28;20439;-72
2021/04/08 00:30:58;;;;;;;4.00;1.80;;;0.10;99.90;;;;;;5110739;28;20522;-72
2021/04/08 00:33:24;;;;;;;4.63;2.67;;;0.10;99.90;;;;;;5110975;28;20484;-72
2021/04/08 00:35:51;;;;;;;5.07;2.07;;;0.10;99.90;;;;;;5111203;28;20833;-72
2021/04/08 00:38:18;;;;;;;4.33;2.07;;;0.10;99.90;;;;;;5111165;28;20952;-73
2021/04/08 00:40:45;;;;;;;3.50;2.00;;;0.10;99.90;;;;;;5110889;28;20420;-72
2021/04/08 00:43:11;;;;;;;2.20;1.53;;;0.10;99.90;;;;;;5110583;28;20474;-73
2021/04/08 00:45:39;;;;;;;23.77;2.30;;;0.10;99.90;;;;;;5111255;28;20901;-73
2021/04/08 00:48:06;;;;;;;1.93;1.73;;;0.00;99.90;;;;;;5111174;28;20424;-72
2021/04/08 00:50:33;;;;;;;3.70;1.83;;;0.00;99.90;;;;;;5110850;28;20424;-72
2021/04/08 00:53:02;;;;;;;10.83;2.80;;;0.00;99.90;;;;;;5110920;28;20443;-72
2021/04/08 00:55:33;;;;;;;1.70;1.60;;;0.00;99.90;;;;;;5111185;28;20980;-72
2021/04/08 00:58:04;;;;;;;2.27;1.50;;;0.00;99.90;;;;;;5109264;28;20440;-72
2021/04/08 01:00:31;;;;;;;4.60;2.17;;;0.10;99.90;;;;;;5110608;28;20424;-72
2021/04/08 01:02:59;;;;;;;5.63;2.20;;;0.00;99.90;;;;;;5111008;28;20535;-72
2021/04/08 01:05:26;;;;;;;3.77;2.00;;;0.00;99.90;;;;;;5110870;28;20432;-72
2021/04/08 01:07:52;;;;;;;6.90;2.37;;;0.00;99.90;;;;;;5110937;28;20427;-72
2021/04/08 01:10:21;;;;;;;4.83;2.13;;;-0.10;99.90;;;;;;5110608;28;20481;-72
2021/04/08 01:12:49;;;;;;;3.47;2.00;;;-0.10;99.90;;;;;;5110578;28;20895;-73
2021/04/08 01:15:16;;;;;;;2.43;1.50;;;-0.10;99.90;;;;;;5110623;28;20480;-72
2021/04/08 01:17:48;;;;;;;3.60;1.83;;;0.00;99.90;;;;;;5110712;28;20492;-72
2021/04/08 01:20:46;;;;;;;2.50;1.87;;;-0.10;99.90;;;;;;5110634;28;20439;-72
2021/04/08 01:23:46;;;;;;;2.90;1.93;;;-0.10;99.90;;;;;;5110128;28;21005;-72
2021/04/08 01:26:29;;;;;;;5.60;2.33;;;-0.10;99.90;;;;;;5110788;28;20516;-72
2021/04/08 01:29:03;;;;;;;3.23;1.93;;;-0.10;99.90;;;;;;5113757;28;20443;-72
2021/04/08 01:31:31;;;;;;;2.33;1.77;;;-0.10;99.90;;;;;;5114036;28;20463;-73
2021/04/08 01:34:04;;;;;;;2.33;2.10;;;-0.10;99.90;;;;;;5113985;28;20464;-72
2021/04/08 01:36:33;;;;;;;3.20;2.23;;;-0.10;99.90;;;;;;5114105;28;20440;-72
2021/04/08 01:39:03;;;;;;;2.37;1.70;;;-0.10;99.90;;;;;;5113859;27;20492;-72
2021/04/08 01:41:34;;;;;;;2.17;1.83;;;-0.10;99.90;;;;;;5114059;27;20462;-72
2021/04/08 01:44:02;;;;;;;4.23;2.03;;;-0.10;99.90;;;;;;5113554;28;20786;-72
2021/04/08 01:46:33;;;;;;;2.43;2.23;;;0.00;99.90;;;;;;5113900;28;20424;-72
2021/04/08 01:49:02;;;;;;;4.27;2.27;;;-0.10;99.90;;;;;;5113793;28;20416;-72
2021/04/08 01:51:30;;;;;;;2.70;2.13;;;-0.10;99.90;;;;;;5113773;28;20448;-73
2021/04/08 01:54:00;;;;;;;2.97;2.30;;;-0.10;99.90;;;;;;5113610;28;20459;-72
2021/04/08 01:56:32;;;;;;;3.93;2.07;;;-0.10;99.90;;;;;;5112585;28;20448;-72
2021/04/08 01:59:00;;;;;;;3.47;1.77;;;-0.10;99.90;;;;;;5113200;28;20484;-72
2021/04/08 02:01:28;;;;;;;3.53;2.20;;;-0.10;99.90;;;;;;5113581;28;20448;-72
2021/04/08 02:03:56;;;;;;;2.07;1.77;;;-0.10;99.90;;;;;;5113654;28;20774;-72
2021/04/08 02:06:25;;;;;;;3.00;1.47;;;-0.10;99.90;;;;;;5113611;27;20428;-72
2021/04/08 02:08:53;;;;;;;8.30;3.47;;;0.00;99.90;;;;;;5113398;28;20431;-72
2021/04/08 02:11:21;;;;;;;2.47;2.27;;;-0.10;99.90;;;;;;5113195;28;20492;-73
2021/04/08 02:13:50;;;;;;;5.93;2.37;;;-0.10;99.90;;;;;;5113131;28;20514;-72
2021/04/08 02:16:19;;;;;;;2.30;1.93;;;-0.10;99.90;;;;;;5113394;28;20431;-73
2021/04/08 02:18:48;;;;;;;11.63;2.60;;;-0.10;99.90;;;;;;5113070;28;20429;-72
2021/04/08 02:21:16;;;;;;;7.73;2.07;;;-0.10;99.90;;;;;;5113115;28;20435;-73
2021/04/08 02:23:45;;;;;;;3.57;2.27;;;-0.10;99.90;;;;;;5113121;28;20812;-72
2021/04/08 02:26:15;;;;;;;5.50;2.27;;;-0.10;99.90;;;;;;5113297;28;20431;-73
2021/04/08 02:28:43;;;;;;;2.53;2.10;;;-0.10;99.90;;;;;;5112720;28;20492;-72
2021/04/08 02:31:10;;;;;;;2.23;1.87;;;-0.10;99.90;;;;;;5113077;28;20823;-72
2021/04/08 02:33:38;;;;;;;2.47;2.10;;;-0.10;99.90;;;;;;5112948;28;20461;-73
2021/04/08 02:36:05;;;;;;;2.40;2.20;;;-0.10;99.90;;;;;;5112805;28;20422;-73
2021/04/08 02:38:35;;;;;;;5.93;2.50;;;-0.10;99.90;;;;;;5112065;28;20424;-72
2021/04/08 02:41:05;;;;;;;2.93;2.73;;;-0.10;99.90;;;;;;5112691;28;20467;-72
2021/04/08 02:43:32;;;;;;;7.90;2.10;;;-0.10;99.90;;;;;;5112655;28;20904;-72
2021/04/08 02:45:59;;;;;;;9.20;2.40;;;-0.10;99.90;;;;;;5113076;28;20951;-72
2021/04/08 02:48:26;;;;;;;3.27;1.80;;;-0.20;99.90;;;;;;5112724;28;20788;-72
2021/04/08 02:50:55;;;;;;;3.00;2.17;;;-0.20;99.90;;;;;;5112364;28;20926;-71
2021/04/08 02:53:27;;;;;;;6.77;2.37;;;-0.20;99.90;;;;;;5112663;28;20420;-73
2021/04/08 02:56:02;;;;;;;2.33;1.70;;;-0.20;99.90;;;;;;5111964;28;20467;-73
2021/04/08 02:58:31;;;;;;;4.33;2.27;;;-0.20;99.90;;;;;;5111073;28;20940;-73
2021/04/08 03:01:02;;;;;;;4.20;2.43;;;-0.20;99.90;;;;;;5112049;28;20436;-72
2021/04/08 03:03:34;;;;;;;7.50;2.67;;;-0.20;99.90;;;;;;5112535;28;20901;-73
2021/04/08 03:06:05;;;;;;;2.73;2.47;;;-0.20;99.90;;;;;;5112455;28;20431;-72
2021/04/08 03:08:33;;;;;;;3.93;2.40;;;-0.20;99.90;;;;;;5112431;28;20420;-72
2021/04/08 03:11:02;;;;;;;3.70;2.70;;;-0.20;99.90;;;;;;5112073;28;20788;-72
2021/04/08 03:13:34;;;;;;;2.40;2.20;;;-0.20;99.90;;;;;;5111884;28;20425;-72
2021/04/08 03:16:04;;;;;;;2.20;2.00;;;-0.20;99.90;;;;;;5112198;28;20892;-72
2021/04/08 03:18:32;;;;;;;3.10;2.20;;;-0.20;99.90;;;;;;5112122;28;20424;-72
2021/04/08 03:21:00;;;;;;;7.57;2.53;;;-0.20;99.90;;;;;;5111816;28;20431;-72
2021/04/08 03:23:27;;;;;;;3.37;2.30;;;-0.20;99.90;;;;;;5111766;28;20441;-72
2021/04/08 03:25:55;;;;;;;5.17;2.77;;;-0.20;99.90;;;;;;5112116;28;20905;-72
2021/04/08 03:28:24;;;;;;;3.50;2.10;;;-0.20;99.90;;;;;;5111463;28;20786;-72
2021/04/08 03:30:51;;;;;;;3.43;2.30;;;-0.30;99.90;;;;;;5111676;28;20443;-73
2021/04/08 03:33:18;;;;;;;2.00;1.83;;;-0.30;99.90;;;;;;5111694;28;20458;-72
2021/04/08 03:35:47;;;;;;;3.60;2.60;;;-0.20;99.90;;;;;;5111785;28;20532;-72
2021/04/08 03:38:16;;;;;;;2.53;2.13;;;-0.30;99.90;;;;;;5111891;28;20808;-72
2021/04/08 03:40:43;;;;;;;2.60;1.97;;;-0.30;99.90;;;;;;5111445;28;20459;-71
2021/04/08 03:43:12;;;;;;;4.23;2.77;;;-0.30;99.90;;;;;;5111424;28;20829;-72
2021/04/08 03:45:42;;;;;;;5.60;2.17;;;-0.30;99.90;;;;;;5111469;28;20438;-71
2021/04/08 03:48:13;;;;;;;5.10;3.47;;;-0.30;99.90;;;;;;5111952;28;20925;-72
2021/04/08 03:50:42;;;;;;;2.30;2.10;;;-0.30;99.90;;;;;;5111523;28;20532;-72
2021/04/08 03:53:10;;;;;;;5.50;2.63;;;-0.30;99.90;;;;;;5111509;28;21123;-73
2021/04/08 03:55:40;;;;;;;2.53;1.87;;;-0.30;99.90;;;;;;5111503;28;20938;-72
2021/04/08 03:58:08;;;;;;;3.70;2.90;;;-0.30;99.90;;;;;;5111447;28;20427;-72
2021/04/08 04:00:36;;;;;;;4.90;2.40;;;-0.30;99.90;;;;;;5111049;28;20494;-73
2021/04/08 04:03:04;;;;;;;2.50;2.23;;;-0.30;99.90;;;;;;5111388;28;20949;-73
2021/04/08 04:05:31;;;;;;;4.80;2.30;;;-0.30;99.90;;;;;;5111426;28;20480;-73
2021/04/08 04:07:58;;;;;;;3.80;2.60;;;-0.30;99.90;;;;;;5111177;28;20443;-73
2021/04/08 04:10:25;;;;;;;4.40;2.43;;;-0.30;99.90;;;;;;5111091;28;20426;-73
2021/04/08 04:12:54;;;;;;;3.43;2.00;;;-0.30;99.90;;;;;;5110145;28;20829;-73
2021/04/08 04:15:21;;;;;;;3.23;2.27;;;-0.30;99.90;;;;;;5110875;28;20472;-72
2021/04/08 04:17:49;;;;;;;2.87;2.57;;;-0.40;99.90;;;;;;5111287;28;20428;-72
2021/04/08 04:20:17;;;;;;;2.70;1.90;;;-0.40;99.90;;;;;;5110901;28;20443;-74
2021/04/08 04:22:44;;;;;;;7.30;2.50;;;-0.40;99.90;;;;;;5111236;28;20552;-72
2021/04/08 04:25:12;;;;;;;6.67;2.57;;;-0.40;99.90;;;;;;5111104;28;20523;-74
2021/04/08 04:27:39;;;;;;;4.93;2.40;;;-0.40;99.90;;;;;;5111283;28;20425;-73
2021/04/08 04:30:09;;;;;;;2.40;2.20;;;-0.40;99.90;;;;;;5110753;28;20443;-73
2021/04/08 04:32:35;;;;;;;2.83;2.07;;;-0.40;99.90;;;;;;5110869;28;20549;-74
2021/04/08 04:35:03;;;;;;;5.30;2.30;;;-0.40;99.90;;;;;;5110912;28;20463;-74
2021/04/08 04:37:31;;;;;;;3.10;1.80;;;-0.40;99.90;;;;;;5110997;28;20437;-73
2021/04/08 04:39:58;;;;;;;2.83;2.50;;;-0.30;99.90;;;;;;5110841;28;20444;-74
2021/04/08 04:42:24;;;;;;;3.27;2.17;;;-0.40;99.90;;;;;;5110963;28;20960;-74
2021/04/08 04:44:51;;;;;;;8.13;2.50;;;-0.40;99.90;;;;;;5110920;28;20921;-74
2021/04/08 04:47:18;;;;;;;3.77;2.87;;;-0.40;99.90;;;;;;5111033;28;20450;-74
2021/04/08 04:49:48;;;;;;;4.37;2.53;;;-0.40;99.90;;;;;;5110756;28;20428;-73
2021/04/08 04:52:15;;;;;;;3.80;2.70;;;-0.40;99.90;;;;;;5111191;28;20451;-73
2021/04/08 04:54:43;;;;;;;4.80;2.40;;;-0.40;99.90;;;;;;5110810;28;20475;-73
2021/04/08 04:57:09;;;;;;;3.77;2.70;;;-0.40;99.90;;;;;;5111399;28;20432;-73
2021/04/08 04:59:36;;;;;;;5.00;2.90;;;-0.40;99.90;;;;;;5110560;28;20978;-73
2021/04/08 05:02:03;;;;;;;4.50;2.97;;;-0.40;99.90;;;;;;5112485;28;20829;-73
2021/04/08 05:04:30;;;;;;;3.43;3.03;;;-0.30;99.90;;;;;;5115047;28;20468;-74
2021/04/08 05:06:56;;;;;;;4.00;2.60;;;-0.30;99.90;;;;;;5114842;27;20940;-73
2021/04/08 05:09:23;;;;;;;5.43;3.23;;;-0.30;99.90;;;;;;5114682;28;20986;-73
2021/04/08 05:11:52;;;;;;;3.73;3.00;;;-0.30;99.90;;;;;;5114192;28;20463;-73
2021/04/08 05:14:18;;;;;;;2.43;2.23;;;-0.30;99.90;;;;;;5112008;28;20538;-73
2021/04/08 05:16:45;;;;;;;6.67;2.80;;;-0.20;99.90;;;;;;5109038;28;20425;-67
2021/04/08 05:19:12;;;;;;;3.33;2.53;;;-0.10;99.90;;;;;;5094249;28;20436;-69
2021/04/08 05:21:39;;;;;;;2.90;2.20;;;0.00;99.90;;;;;;5095046;28;20444;-68
2021/04/08 05:24:06;;;;;;;3.80;1.90;;;0.20;99.90;;;;;;5108651;28;20423;-68
2021/04/08 05:26:33;;;;;;;4.10;2.30;;;0.20;99.90;;;;;;5114370;27;20448;-68
2021/04/08 05:29:00;;;;;;;3.97;2.33;;;0.20;99.90;;;;;;5112525;28;20433;-69
2021/04/08 05:31:27;;;;;;;3.60;2.50;;;0.20;99.90;;;;;;5108993;28;20459;-68
2021/04/08 05:33:54;;;;;;;6.70;2.70;;;0.10;99.90;;;;;;5104765;28;20438;-68
2021/04/08 05:36:20;;;;;;;4.80;2.40;;;0.10;99.90;;;;;;5105167;28;20471;-68
2021/04/08 05:38:47;;;;;;;3.23;2.00;;;0.20;99.90;;;;;;5113926;28;20428;-68
2021/04/08 05:41:14;;;;;;;5.10;2.30;;;0.20;99.90;;;;;;5114066;28;20425;-68
2021/04/08 05:43:42;;;;;;;7.47;2.33;;;0.20;99.90;;;;;;5113512;28;20854;-68
2021/04/08 05:46:10;;;;;;;6.30;2.77;;;0.20;99.90;;;;;;5096826;28;20446;-68
2021/04/08 05:48:37;;;;;;;5.30;2.67;;;0.20;99.90;;;;;;5097597;28;20484;-69
2021/04/08 05:51:04;;;;;;;4.83;1.97;;;0.20;99.90;;;;;;5102725;28;20428;-68
2021/04/08 05:53:30;;;;;;;9.03;2.40;;;0.20;99.90;;;;;;5107743;28;20827;-68
2021/04/08 05:55:57;;;;;;;4.80;2.50;;;0.10;99.90;;;;;;5113742;28;20474;-68
2021/04/08 05:58:24;;;;;;;6.37;2.23;;;0.10;99.90;;;;;;5113656;28;20424;-68
2021/04/08 06:00:51;;;;;;;3.50;1.77;;;0.10;99.90;;;;;;5113043;28;20468;-68
2021/04/08 06:03:19;;;;;;;15.53;3.10;;;0.10;99.90;;;;;;5113598;28;20460;-68
2021/04/08 06:05:45;;;;;;;5.93;2.43;;;0.10;99.90;;;;;;5112033;28;20444;-68
2021/04/08 06:08:12;;;;;;;4.20;2.97;;;0.10;99.90;;;;;;5113556;28;20877;-68
2021/04/08 06:10:39;;;;;;;9.20;3.20;;;0.20;99.90;;;;;;5113110;28;20446;-68
2021/04/08 06:13:05;;;;;;;4.53;2.43;;;0.20;99.90;;;;;;5111790;28;20961;-68
2021/04/08 06:15:32;;;;;;;2.23;2.03;;;0.30;99.90;;;;;;5111662;28;20468;-68
2021/04/08 06:17:59;;;;;;;5.20;2.33;;;0.30;99.90;;;;;;5112423;28;20496;-68
2021/04/08 06:20:26;;;;;;;3.50;3.20;;;0.30;99.90;;;;;;5113036;28;20430;-68
2021/04/08 06:22:56;;;;;;;8.17;3.43;;;0.30;99.90;;;;;;5112958;28;20999;-68
2021/04/08 06:25:23;;;;;;;7.03;2.80;;;0.20;99.90;;;;;;5113315;28;20433;-68
2021/04/08 06:27:50;;;;;;;3.20;2.90;;;0.20;99.90;;;;;;5112019;28;20508;-68
2021/04/08 06:30:18;;;;;;;8.30;2.27;;;0.20;99.90;;;;;;5112900;28;20895;-69
2021/04/08 06:32:45;;;;;;;3.67;2.50;;;0.20;99.90;;;;;;5112961;28;20549;-69
2021/04/08 06:35:12;;;;;;;2.90;2.10;;;0.30;99.90;;;;;;5113019;28;20460;-68
2021/04/08 06:37:40;;;;;;;5.50;2.43;;;0.40;99.90;;;;;;5112930;28;20424;-68
2021/04/08 06:40:08;;;;;;;7.73;2.93;;;0.50;99.90;;;;;;5112831;28;20507;-68
2021/04/08 06:42:36;;;;;;;5.00;2.37;;;0.50;99.90;;;;;;5112483;28;20476;-69
2021/04/08 06:45:05;;;;;;;6.27;2.77;;;0.60;99.90;;;;;;5112790;28;20481;-68
2021/04/08 06:47:43;;;;;;;2.63;2.30;;;0.70;99.90;;;;;;5112710;28;20421;-68
2021/04/08 06:50:12;;;;;;;3.40;1.90;;;0.80;99.90;;;;;;5112468;28;20480;-68
2021/04/08 06:52:40;;;;;;;5.53;4.10;;;0.70;99.90;;;;;;5112396;28;20464;-68
2021/04/08 06:55:08;;;;;;;2.67;2.33;;;0.60;99.90;;;;;;5112510;28;20482;-68
2021/04/08 06:57:35;;;;;;;3.77;3.40;;;0.60;99.90;;;;;;5112558;28;20421;-69
2021/04/08 07:00:04;;;;;;;4.53;3.63;;;0.70;99.90;;;;;;5112164;28;20435;-68
2021/04/08 07:02:32;;;;;;;2.70;2.50;;;0.70;99.90;;;;;;5112527;28;20440;-68
2021/04/08 07:04:59;;;;;;;4.60;2.30;;;0.60;99.90;;;;;;5112290;28;20430;-68
2021/04/08 07:07:26;;;;;;;3.93;2.80;;;0.60;99.90;;;;;;5111573;28;20494;-68
2021/04/08 07:09:53;;;;;;;6.20;2.33;;;0.70;99.90;;;;;;5112151;28;20416;-67
2021/04/08 07:12:20;;;;;;;3.20;1.90;;;0.80;99.90;;;;;;5112302;28;20447;-67
2021/04/08 07:14:47;;;;;;;3.23;2.20;;;0.80;99.90;;;;;;5111906;28;20844;-67
2021/04/08 07:17:14;;;;;;;4.40;3.07;;;0.80;99.90;;;;;;5111233;28;20835;-67
2021/04/08 07:19:40;;;;;;;2.93;2.00;;;0.80;99.90;;;;;;5111599;28;20412;-67
2021/04/08 07:22:07;;;;;;;3.60;2.57;;;0.90;99.90;;;;;;5111603;28;20444;-68
2021/04/08 07:24:42;;;;;;;5.00;3.13;;;1.00;99.90;;;;;;5111719;28;20427;-68
2021/04/08 07:27:15;;;;;;;4.60;2.80;;;1.10;99.90;;;;;;5112003;28;20426;-68
2021/04/08 07:29:48;;;;;;;3.77;2.30;;;1.00;99.90;;;;;;5111916;28;20519;-67
2021/04/08 07:32:19;;;;;;;2.50;2.17;;;1.20;99.90;;;;;;5111307;28;20460;-67
2021/04/08 07:34:48;;;;;;;3.03;2.30;;;1.30;99.90;;;;;;5111869;28;20471;-68
2021/04/08 07:37:15;;;;;;;4.40;2.70;;;1.30;99.90;;;;;;5111315;28;20427;-67
2021/04/08 07:39:44;;;;;;;10.80;3.57;;;1.30;99.90;;;;;;5109633;28;20870;-68
2021/04/08 07:42:13;;;;;;;5.60;2.60;;;1.40;99.90;;;;;;5111655;28;20439;-68
2021/04/08 07:44:48;;;;;;;3.93;2.60;;;1.50;99.90;;;;;;5111676;28;20428;-67
2021/04/08 07:47:27;;;;;;;4.63;2.50;;;1.70;99.90;;;;;;5111549;28;20430;-68
2021/04/08 07:49:55;;;;;;;3.33;2.20;;;1.60;99.90;;;;;;5111450;28;20476;-68
2021/04/08 07:52:26;;;;;;;5.10;3.67;;;1.50;99.90;;;;;;5111504;28;20444;-68
2021/04/08 07:55:12;;;;;;;4.30;2.70;;;1.60;99.90;;;;;;5111737;28;20494;-69
2021/04/08 07:58:07;;;;;;;9.63;2.60;;;1.60;99.90;;;;;;5111680;28;20449;-68
2021/04/08 08:00:36;;;;;;;5.17;2.30;;;1.70;99.90;;;;;;5076008;28;21085;-67
2021/04/08 08:03:05;;;;;;;2.53;2.33;;;1.90;99.90;;;;;;5110497;28;21043;-68
2021/04/08 08:05:33;;;;;;;5.10;2.70;;;2.10;99.90;;;;;;5111820;28;20443;-67
2021/04/08 08:08:13;;;;;;;5.20;3.50;;;2.40;99.90;;;;;;5111413;28;20428;-68
2021/04/08 08:10:42;;;;;;;6.37;3.57;;;2.40;99.90;;;;;;5111177;28;20476;-67
2021/04/08 08:13:25;;;;;;;6.97;4.47;;;2.50;99.90;;;;;;5111119;28;21068;-68
2021/04/08 08:15:55;;;;;;;7.43;3.77;;;2.50;99.90;;;;;;5111219;28;20462;-67
2021/04/08 08:18:30;;;;;;;6.73;3.10;;;2.50;99.90;;;;;;5110887;28;20462;-67
2021/04/08 08:21:07;;;;;;;6.37;3.67;;;2.60;99.90;;;;;;5111193;28;20434;-68
2021/04/08 08:23:39;;;;;;;3.13;2.40;;;2.70;99.90;;;;;;5111252;28;20544;-67
2021/04/08 08:26:32;;;;;;;6.80;3.50;;;2.70;99.90;;;;;;5111365;28;20510;-68
2021/04/08 08:29:02;;;;;;;3.30;3.00;;;2.60;99.90;;;;;;5111111;28;20432;-67
2021/04/08 08:31:44;;;;;;;4.23;2.87;;;2.50;99.90;;;;;;5110926;28;20477;-67
2021/04/08 08:34:12;;;;;;;3.50;3.07;;;2.60;99.90;;;;;;5110754;28;20424;-67
2021/04/08 08:36:40;;;;;;;5.53;2.93;;;2.60;99.90;;;;;;5111977;28;20471;-67
2021/04/08 08:39:13;;;;;;;5.50;3.37;;;2.60;99.90;;;;;;5114190;28;20443;-67
2021/04/08 08:41:40;;;;;;;3.80;3.10;;;2.80;99.90;;;;;;5115143;28;20466;-67
2021/04/08 08:44:10;;;;;;;2.70;2.50;;;3.10;99.90;;;;;;5115514;28;20475;-67
2021/04/08 08:46:44;;;;;;;7.20;3.20;;;3.30;99.90;;;;;;5115223;28;20800;-68
2021/04/08 08:49:14;;;;;;;4.70;3.40;;;3.70;99.90;;;;;;5113930;28;20477;-67
2021/04/08 08:51:40;;;;;;;4.60;3.10;;;3.80;99.90;;;;;;5115073;28;20446;-67
2021/04/08 08:54:10;;;;;;;3.83;2.53;;;3.90;99.90;;;;;;5115130;28;20819;-67
2021/04/08 08:56:39;;;;;;;9.20;3.87;;;3.90;99.90;;;;;;5115179;28;20513;-67
2021/04/08 08:59:06;;;;;;;4.90;3.23;;;4.00;99.90;;;;;;5114742;28;20423;-67
2021/04/08 09:01:35;;;;;;;4.53;3.50;;;4.10;99.90;;;;;;5114574;28;20481;-67
2021/04/08 09:04:03;;;;;;;6.80;3.40;;;3.50;99.90;;;;;;5114491;27;20444;-67
2021/04/08 09:06:31;;;;;;;5.10;2.93;;;3.50;99.90;;;;;;5114686;28;20443;-67
2021/04/08 09:09:05;;;;;;;5.93;3.47;;;3.40;99.90;;;;;;5114742;28;20436;-67
2021/04/08 09:11:33;;;;;;;3.30;2.93;;;3.40;99.90;;;;;;5114797;28;20459;-67
2021/04/08 09:14:01;;;;;;;6.63;3.60;;;3.60;99.90;;;;;;5114507;28;20446;-68
2021/04/08 09:16:29;;;;;;;3.70;2.80;;;3.80;99.90;;;;;;5116100;28;20523;-67
2021/04/08 09:19:02;;;;;;;4.80;3.00;;;3.90;99.90;;;;;;5114065;28;21077;-67
2021/04/08 09:21:46;;;;;;;3.37;2.83;;;4.10;99.90;;;;;;5114160;28;20964;-67
2021/04/08 09:24:18;;;;;;;3.30;3.00;;;4.10;99.90;;;;;;5114466;28;20434;-68
2021/04/08 09:26:48;;;;;;;4.07;2.60;;;4.20;99.90;;;;;;5114002;28;20488;-67
2021/04/08 09:29:42;;;;;;;4.13;2.37;;;3.90;99.90;;;;;;5114095;28;20444;-68
2021/04/08 09:32:32;;;;;;;2.57;2.40;;;4.00;99.90;;;;;;5114079;28;20486;-67
2021/04/08 09:35:20;;;;;;;3.20;2.40;;;4.10;99.90;;;;;;5114035;28;20835;-67
2021/04/08 09:38:20;;;;;;;7.00;3.60;;;3.80;99.90;;;;;;5114158;28;20444;-67
2021/04/08 09:40:52;;;;;;;3.70;2.93;;;3.40;99.90;;;;;;5113372;28;20843;-67
2021/04/08 09:43:22;;;;;;;7.00;3.43;;;3.50;99.90;;;;;;5113726;28;20479;-67
2021/04/08 09:45:52;;;;;;;4.70;3.23;;;3.80;99.90;;;;;;5114375;28;20909;-67
2021/04/08 09:48:21;;;;;;;2.83;2.40;;;3.90;99.90;;;;;;5113181;28;20770;-67
2021/04/08 09:50:51;;;;;;;3.67;3.20;;;4.00;98.00;;;;;;5113784;28;20420;-67
2021/04/08 09:53:19;;;;;;;3.20;2.43;;;4.00;99.90;;;;;;5113698;28;20441;-67
2021/04/08 09:55:54;;;;;;;4.90;2.70;;;4.20;99.90;;;;;;5113599;28;20972;-67
2021/04/08 09:58:23;;;;;;;2.90;2.57;;;4.40;99.90;;;;;;5113761;28;20440;-66
2021/04/08 10:00:51;;;;;;;9.93;3.30;;;4.60;99.90;;;;;;5113452;28;20431;-67
2021/04/08 10:03:29;;;;;;;4.63;3.20;;;4.60;99.90;;;;;;5113355;28;20444;-67
2021/04/08 10:05:57;;;;;;;3.90;2.70;;;4.50;98.20;;;;;;5113636;28;20535;-67
2021/04/08 10:08:25;;;;;;;7.83;3.60;;;4.70;99.90;;;;;;5113499;28;20420;-67
2021/04/08 10:10:52;;;;;;;4.70;3.20;;;5.10;99.60;;;;;;5113206;28;20427;-67
2021/04/08 10:13:21;;;;;;;2.60;2.40;;;5.20;98.60;;;;;;5113347;28;20501;-67
2021/04/08 10:15:49;;;;;;;3.87;2.90;;;5.20;97.20;;;;;;5113347;28;20844;-66
2021/04/08 10:18:17;;;;;;;5.90;2.60;;;5.60;97.90;;;;;;5113265;28;21009;-67
2021/04/08 10:20:45;;;;;;;3.50;2.40;;;5.10;94.80;;;;;;5112997;28;20436;-67
2021/04/08 10:23:13;;;;;;;3.90;3.53;;;5.10;99.90;;;;;;5113320;28;20444;-67
2021/04/08 10:25:40;;;;;;;7.40;3.27;;;5.10;96.10;;;;;;5113293;28;20782;-67
2021/04/08 10:28:08;;;;;;;4.87;3.20;;;5.00;97.60;;;;;;5113219;28;20432;-67
2021/04/08 10:30:38;;;;;;;4.97;3.60;;;5.10;99.90;;;;;;5112925;28;21011;-67
2021/04/08 10:33:20;;;;;;;4.30;3.43;;;4.90;97.50;;;;;;5112749;28;20531;-66
2021/04/08 10:35:47;;;;;;;3.70;2.90;;;4.90;99.90;;;;;;5110923;28;20474;-66
2021/04/08 10:38:15;;;;;;;4.70;3.20;;;4.70;99.60;;;;;;5113073;28;20426;-66
2021/04/08 10:41:00;;;;;;;3.73;3.43;;;4.60;97.90;;;;;;5102953;28;20432;-66
2021/04/08 10:43:26;;;;;;;5.47;3.37;;;4.60;96.00;;;;;;5092627;28;20433;-66
2021/04/08 10:45:55;;;;;;;5.30;3.43;;;4.40;95.20;;;;;;5092420;28;20417;-67
2021/04/08 10:48:23;;;;;;;4.07;3.00;;;4.40;96.70;;;;;;5097153;28;21148;-66
2021/04/08 10:50:51;;;;;;;6.93;3.37;;;4.30;95.30;;;;;;5112506;28;20425;-66
2021/04/08 10:53:21;;;;;;;3.60;3.23;;;4.20;95.40;;;;;;5112515;28;20456;-66
2021/04/08 10:55:48;;;;;;;5.70;3.27;;;4.30;97.20;;;;;;5112689;28;20554;-67
2021/04/08 10:58:22;;;;;;;9.20;4.50;;;4.30;95.00;;;;;;5112500;28;20445;-66
2021/04/08 11:00:49;;;;;;;7.97;4.20;;;4.40;94.90;;;;;;5111703;28;21084;-67
2021/04/08 11:03:16;;;;;;;3.77;3.47;;;4.60;95.60;;;;;;5112201;28;20468;-67
2021/04/08 11:05:42;;;;;;;3.87;2.70;;;4.60;94.70;;;;;;5112441;28;20424;-67
2021/04/08 11:08:11;;;;;;;5.13;3.33;;;4.70;94.90;;;;;;5112440;28;20477;-67
2021/04/08 11:10:39;;;;;;;7.87;4.00;;;4.50;93.30;;;;;;5112273;28;20421;-67
2021/04/08 11:13:06;;;;;;;5.73;3.60;;;4.40;94.30;;;;;;5112126;28;20472;-67
2021/04/08 11:15:35;;;;;;;9.47;4.00;;;4.50;95.00;;;;;;5112268;28;20564;-67
2021/04/08 11:18:06;;;;;;;5.20;3.90;;;4.60;94.40;;;;;;5111121;28;20432;-67
2021/04/08 11:20:35;;;;;;;3.70;3.33;;;4.80;95.30;;;;;;5112027;28;20421;-66
2021/04/08 11:23:03;;;;;;;5.80;3.93;;;4.70;93.30;;;;;;5112064;28;20452;-67
2021/04/08 11:25:30;;;;;;;6.33;4.50;;;4.70;94.20;;;;;;5111985;28;20804;-67
2021/04/08 11:27:59;;;;;;;6.17;3.67;;;4.80;97.60;;;;;;5111809;28;20477;-67
2021/04/08 11:30:30;;;;;;;4.40;4.00;;;5.00;94.10;;;;;;5111954;28;20838;-67
2021/04/08 11:32:58;;;;;;;5.37;3.50;;;5.10;96.30;;;;;;5110706;28;20464;-67
2021/04/08 11:35:29;;;;;;;3.40;3.17;;;5.20;94.50;;;;;;5111865;28;20845;-67
2021/04/08 11:38:07;;;;;;;5.40;3.87;;;5.30;96.60;;;;;;5111959;28;20428;-67
2021/04/08 11:40:34;;;;;;;4.50;3.37;;;5.60;99.50;;;;;;5111512;28;20446;-67
2021/04/08 11:43:18;;;;;;;4.20;3.77;;;6.00;97.20;;;;;;5111828;28;20477;-67
2021/04/08 11:45:45;;;;;;;3.57;3.27;;;6.30;96.50;;;;;;5111755;28;20493;-67
2021/04/08 11:48:12;;;;;;;4.67;3.63;;;6.60;94.50;;;;;;5111466;28;20445;-67
2021/04/08 11:50:42;;;;;;;6.80;4.10;;;6.90;93.90;;;;;;5111339;28;20424;-67
2021/04/08 11:53:10;;;;;;;3.87;3.47;;;7.30;92.50;;;;;;5111465;28;20459;-67
2021/04/08 11:55:39;;;;;;;5.13;4.03;;;7.70;94.70;;;;;;5111444;28;20467;-67
2021/04/08 11:58:08;;;;;;;5.90;3.77;;;8.10;92.20;;;;;;5111555;28;20420;-67
2021/04/08 12:00:36;;;;;;;7.83;4.00;;;7.90;93.10;;;;;;5111204;28;20428;-67
2021/04/08 12:03:20;;;;;;;6.17;3.77;;;7.40;87.50;;;;;;5111058;28;20542;-67
2021/04/08 12:05:47;;;;;;;5.87;4.00;;;7.60;90.90;;;;;;5111312;28;20420;-67
2021/04/08 12:08:14;;;;;;;5.53;4.13;;;8.10;90.00;;;;;;5111707;28;20426;-67
2021/04/08 12:10:42;;;;;;;4.83;3.90;;;7.80;84.20;;;;;;5111137;28;20420;-67
2021/04/08 12:13:11;;;;;;;7.63;4.10;;;7.70;85.40;;;;;;5111247;28;20445;-67
2021/04/08 12:15:41;;;;;;;5.63;4.20;;;7.60;87.00;;;;;;5111199;28;20474;-67
2021/04/08 12:18:14;;;;;;;7.07;3.60;;;8.20;86.40;;;;;;5111005;28;20439;-67
2021/04/08 12:20:40;;;;;;;4.20;3.80;;;8.50;84.30;;;;;;5111182;28;20442;-67
2021/04/08 12:23:09;;;;;;;5.47;3.40;;;8.50;79.80;;;;;;5111122;28;20520;-67
2021/04/08 12:25:45;;;;;;;3.53;3.00;;;8.20;81.80;;;;;;5111264;28;20483;-67
2021/04/08 12:28:13;;;;;;;10.07;3.90;;;7.40;80.00;;;;;;5110567;28;20944;-67
2021/04/08 12:30:47;;;;;;;4.93;3.63;;;7.20;80.50;;;;;;5110777;28;20520;-67
2021/04/08 12:33:18;;;;;;;6.90;4.40;;;7.50;80.30;;;;;;5110870;28;20804;-67
2021/04/08 12:35:45;;;;;;;5.03;4.07;;;8.20;83.40;;;;;;5110285;28;20466;-67
2021/04/08 12:38:12;;;;;;;9.23;3.53;;;8.70;85.20;;;;;;5110867;28;20432;-67
2021/04/08 12:40:39;;;;;;;3.60;3.13;;;8.60;78.90;;;;;;5110916;28;20413;-67
2021/04/08 12:43:06;;;;;;;5.37;4.17;;;8.40;77.70;;;;;;5110926;28;20449;-67
2021/04/08 12:45:34;;;;;;;4.30;3.50;;;8.10;77.80;;;;;;5111043;28;20829;-67
2021/04/08 12:48:01;;;;;;;7.20;3.20;;;7.70;80.10;;;;;;5111091;28;20945;-67
2021/04/08 12:50:28;;;;;;;8.40;3.70;;;7.40;78.70;;;;;;5110550;28;20431;-67
2021/04/08 12:52:55;;;;;;;5.27;3.67;;;7.50;83.00;;;;;;5110707;28;20937;-67
2021/04/08 12:55:24;;;;;;;4.10;3.70;;;7.30;83.10;;;;;;5111000;28;21049;-67
2021/04/08 12:57:50;;;;;;;4.70;2.90;;;7.10;85.50;;;;;;5110744;28;20444;-67
2021/04/08 13:00:18;;;;;;;5.93;3.70;;;7.60;82.30;;;;;;5110696;28;20445;-67
2021/04/08 13:02:46;;;;;;;5.47;3.70;;;7.70;80.60;;;;;;5110803;28;20511;-67
2021/04/08 13:05:13;;;;;;;3.53;2.97;;;8.00;79.60;;;;;;5110605;28;20424;-67